createdAt,value
2018-08-22T00:02:23.800Z,2.33
2018-08-22T00:04:51.882Z,2.50
2018-08-22T00:07:20.051Z,2.50
2018-08-22T00:09:48.154Z,2.70
2018-08-22T00:12:16.236Z,2.73
2018-08-22T00:14:44.308Z,2.20
2018-08-22T00:17:12.377Z,2.30
2018-08-22T00:19:40.572Z,2.30
2018-08-22T00:22:08.694Z,2.57
2018-08-22T00:24:36.755Z,2.40
2018-08-22T00:27:04.873Z,3.10
2018-08-22T00:29:32.930Z,2.60
2018-08-22T00:32:00.991Z,2.40
2018-08-22T00:34:29.073Z,2.57
2018-08-22T00:36:57.150Z,2.50
2018-08-22T00:39:25.234Z,2.33
2018-08-22T00:41:53.330Z,2.40
2018-08-22T00:44:21.520Z,2.40
2018-08-22T00:46:49.582Z,2.30
2018-08-22T00:49:17.675Z,2.43
2018-08-22T00:51:45.763Z,2.90
2018-08-22T00:54:13.835Z,2.90
2018-08-22T00:56:41.920Z,2.63
2018-08-22T00:59:10.408Z,2.30
2018-08-22T01:01:38.471Z,3.10
2018-08-22T01:04:06.538Z,2.87
2018-08-22T01:06:34.668Z,2.90
2018-08-22T01:09:02.735Z,2.97
2018-08-22T01:11:30.807Z,2.70
2018-08-22T01:13:58.894Z,2.80
2018-08-22T01:16:26.994Z,2.80
2018-08-22T01:18:55.039Z,2.40
2018-08-22T01:21:23.108Z,2.50
2018-08-22T01:23:51.171Z,2.27
2018-08-22T01:26:19.235Z,2.40
2018-08-22T01:28:47.303Z,2.63
2018-08-22T01:31:15.378Z,3.23
2018-08-22T01:33:43.451Z,2.50
2018-08-22T01:36:11.534Z,2.77
2018-08-22T01:38:39.635Z,2.57
2018-08-22T01:41:07.673Z,2.10
2018-08-22T01:43:35.734Z,2.20
2018-08-22T01:46:03.828Z,2.80
2018-08-22T01:48:31.906Z,2.40
2018-08-22T01:50:59.979Z,2.83
2018-08-22T01:53:28.049Z,3.10
2018-08-22T01:55:56.241Z,2.70
2018-08-22T01:58:24.362Z,2.50
2018-08-22T02:00:52.435Z,3.03
2018-08-22T02:03:20.503Z,3.00
2018-08-22T02:05:48.589Z,2.60
2018-08-22T02:08:16.667Z,2.40
2018-08-22T02:10:44.724Z,2.33
2018-08-22T02:13:12.855Z,2.60
2018-08-22T02:15:40.931Z,2.60
2018-08-22T02:18:09.008Z,2.50
2018-08-22T02:20:37.101Z,2.47
2018-08-22T02:23:05.183Z,2.63
2018-08-22T02:25:33.252Z,2.73
2018-08-22T02:28:01.329Z,2.70
2018-08-22T02:30:29.408Z,2.07
2018-08-22T02:32:57.487Z,2.60
2018-08-22T02:35:25.558Z,2.73
2018-08-22T02:37:53.676Z,2.73
2018-08-22T02:40:21.758Z,2.67
2018-08-22T02:42:49.833Z,3.10
2018-08-22T02:45:17.902Z,3.20
2018-08-22T02:47:46.003Z,3.10
2018-08-22T02:50:14.062Z,2.80
2018-08-22T02:52:42.145Z,2.87
2018-08-22T02:55:10.223Z,3.00
2018-08-22T02:57:38.306Z,3.10
2018-08-22T03:00:06.378Z,3.60
2018-08-22T03:02:34.464Z,3.20
2018-08-22T03:05:02.514Z,3.27
2018-08-22T03:07:30.592Z,2.87
2018-08-22T03:09:58.643Z,3.07
2018-08-22T03:12:26.724Z,3.13
2018-08-22T03:14:54.787Z,2.27
2018-08-22T03:17:22.844Z,2.43
2018-08-22T03:19:50.923Z,2.60
2018-08-22T03:22:19.003Z,3.80
2018-08-22T03:24:47.066Z,3.00
2018-08-22T03:27:15.135Z,3.00
2018-08-22T03:29:43.221Z,3.20
2018-08-22T03:32:11.292Z,2.70
2018-08-22T03:34:39.382Z,3.60
2018-08-22T03:37:07.521Z,3.13
2018-08-22T03:39:35.603Z,3.40
2018-08-22T03:42:03.815Z,3.60
2018-08-22T03:44:31.912Z,3.60
2018-08-22T03:47:00.045Z,3.70
2018-08-22T03:49:28.170Z,3.10
2018-08-22T03:51:56.284Z,3.20
2018-08-22T03:54:24.386Z,3.10
2018-08-22T03:56:52.555Z,3.33
2018-08-22T03:59:20.639Z,3.17
2018-08-22T04:01:48.736Z,3.27
2018-08-22T04:04:16.833Z,2.20
2018-08-22T04:06:44.912Z,2.80
2018-08-22T04:09:13.018Z,3.20
2018-08-22T04:11:41.150Z,2.90
2018-08-22T04:14:09.267Z,2.87
2018-08-22T04:16:37.355Z,2.87
2018-08-22T04:19:05.458Z,3.03
2018-08-22T04:21:33.539Z,3.10
2018-08-22T04:24:01.659Z,3.30
2018-08-22T04:26:29.737Z,3.00
2018-08-22T04:28:57.824Z,2.90
2018-08-22T04:31:25.910Z,2.53
2018-08-22T04:33:53.996Z,3.23
2018-08-22T04:36:22.068Z,3.00
2018-08-22T04:38:50.151Z,3.20
2018-08-22T04:41:18.263Z,3.40
2018-08-22T04:43:46.392Z,2.67
2018-08-22T04:46:14.456Z,3.40
2018-08-22T04:48:42.548Z,2.53
2018-08-22T04:51:10.635Z,3.67
2018-08-22T04:53:38.691Z,3.30
2018-08-22T04:56:06.792Z,3.10
2018-08-22T04:58:34.864Z,3.00
2018-08-22T05:01:02.936Z,3.00
2018-08-22T05:03:31.067Z,2.80
2018-08-22T05:05:59.176Z,3.20
2018-08-22T05:08:27.218Z,3.03
2018-08-22T05:10:55.308Z,2.90
2018-08-22T05:13:23.387Z,3.30
2018-08-22T05:15:51.447Z,3.83
2018-08-22T05:18:19.554Z,5.00
2018-08-22T05:20:47.639Z,3.57
2018-08-22T05:23:15.699Z,3.20
2018-08-22T05:25:43.843Z,2.87
2018-08-22T05:28:11.920Z,3.07
2018-08-22T05:30:40.072Z,2.80
2018-08-22T05:33:08.159Z,3.10
2018-08-22T05:35:36.207Z,3.20
2018-08-22T05:38:04.372Z,3.87
2018-08-22T05:40:32.524Z,3.83
2018-08-22T05:43:00.578Z,3.30
2018-08-22T05:45:28.656Z,3.00
2018-08-22T05:47:56.723Z,2.73
2018-08-22T05:50:24.804Z,3.10
2018-08-22T05:52:52.866Z,2.93
2018-08-22T05:55:20.979Z,2.73
2018-08-22T05:57:49.033Z,3.17
2018-08-22T06:00:17.099Z,3.57
2018-08-22T06:02:45.178Z,3.33
2018-08-22T06:05:13.261Z,2.90
2018-08-22T06:07:41.318Z,3.70
2018-08-22T06:10:09.405Z,3.70
2018-08-22T06:12:37.472Z,3.37
2018-08-22T06:15:05.646Z,3.40
2018-08-22T06:17:33.893Z,4.30
2018-08-22T06:20:01.964Z,3.40
2018-08-22T06:22:30.019Z,3.10
2018-08-22T06:24:58.120Z,3.17
2018-08-22T06:27:26.211Z,3.17
2018-08-22T06:29:54.380Z,3.43
2018-08-22T06:32:22.466Z,3.30
2018-08-22T06:34:50.542Z,4.00
2018-08-22T06:37:18.988Z,3.67
2018-08-22T06:39:47.168Z,4.00
2018-08-22T06:42:15.256Z,4.30
2018-08-22T06:44:43.332Z,4.50
2018-08-22T06:47:11.401Z,3.60
2018-08-22T06:49:39.485Z,3.70
2018-08-22T06:52:07.572Z,3.90
2018-08-22T06:54:35.663Z,3.60
2018-08-22T06:57:03.872Z,3.30
2018-08-22T06:59:31.955Z,4.00
2018-08-22T07:02:00.033Z,3.50
2018-08-22T07:04:28.133Z,3.43
2018-08-22T07:06:56.203Z,3.90
2018-08-22T07:09:24.280Z,3.60
2018-08-22T07:11:52.468Z,4.70
2018-08-22T07:14:20.539Z,3.80
2018-08-22T07:16:48.688Z,4.47
2018-08-22T07:19:16.750Z,3.93
2018-08-22T07:21:44.821Z,4.10
2018-08-22T07:24:12.943Z,3.83
2018-08-22T07:26:41.006Z,3.93
2018-08-22T07:29:09.091Z,4.40
2018-08-22T07:31:37.181Z,5.00
2018-08-22T07:34:05.417Z,4.90
2018-08-22T07:36:33.512Z,5.50
2018-08-22T07:39:01.715Z,5.03
2018-08-22T07:41:29.782Z,4.27
2018-08-22T07:43:57.852Z,4.53
2018-08-22T07:46:25.939Z,5.03
2018-08-22T07:48:54.047Z,4.23
2018-08-22T07:51:22.107Z,4.70
2018-08-22T07:53:50.185Z,6.27
2018-08-22T07:56:18.289Z,4.53
2018-08-22T07:58:46.400Z,4.50
2018-08-22T08:01:14.564Z,4.60
2018-08-22T08:03:42.635Z,4.50
2018-08-22T08:06:10.732Z,4.70
2018-08-22T08:08:38.852Z,3.80
2018-08-22T08:11:06.920Z,4.40
2018-08-22T08:13:34.961Z,5.27
2018-08-22T08:16:03.111Z,4.57
2018-08-22T08:18:31.198Z,4.47
2018-08-22T08:20:59.271Z,4.40
2018-08-22T08:23:27.320Z,4.90
2018-08-22T08:25:55.440Z,4.47
2018-08-22T08:28:23.531Z,12.40
2018-08-22T08:30:51.624Z,7.00
2018-08-22T08:33:19.715Z,7.47
2018-08-22T08:35:47.866Z,4.70
2018-08-22T08:38:15.895Z,4.70
2018-08-22T08:40:43.980Z,4.77
2018-08-22T08:43:12.062Z,5.13
2018-08-22T08:45:40.287Z,4.80
2018-08-22T08:48:08.371Z,4.43
2018-08-22T08:50:36.451Z,4.80
2018-08-22T08:53:04.577Z,5.20
2018-08-22T08:55:32.770Z,4.77
2018-08-22T08:58:00.856Z,4.47
2018-08-22T09:00:28.948Z,4.30
2018-08-22T09:02:57.138Z,4.50
2018-08-22T09:05:25.223Z,4.50
2018-08-22T09:07:53.310Z,4.53
2018-08-22T09:10:21.400Z,3.70
2018-08-22T09:12:49.652Z,3.80
2018-08-22T09:15:17.768Z,4.90
2018-08-22T09:17:45.883Z,4.60
2018-08-22T09:20:13.956Z,4.70
2018-08-22T09:22:42.030Z,4.03
2018-08-22T09:25:10.202Z,4.77
2018-08-22T09:27:38.419Z,3.97
2018-08-22T09:30:06.643Z,4.33
2018-08-22T09:32:34.725Z,4.00
2018-08-22T09:35:02.806Z,4.47
2018-08-22T09:37:30.927Z,4.20
2018-08-22T09:39:59.014Z,4.17
2018-08-22T09:42:27.092Z,4.00
2018-08-22T09:44:55.196Z,5.07
2018-08-22T09:47:23.311Z,3.90
2018-08-22T09:52:25.732Z,3.87
2018-08-22T09:54:59.094Z,4.30
2018-08-22T09:57:27.990Z,3.67
2018-08-22T09:59:56.173Z,4.30
2018-08-22T10:02:24.315Z,4.10
2018-08-22T10:04:52.732Z,3.97
2018-08-22T10:07:20.877Z,4.70
2018-08-22T10:09:49.003Z,4.00
2018-08-22T10:12:17.127Z,3.93
2018-08-22T10:14:45.207Z,3.63
2018-08-22T10:17:13.399Z,4.60
2018-08-22T10:19:41.642Z,3.90
2018-08-22T10:22:09.695Z,4.37
2018-08-22T10:24:37.784Z,4.40
2018-08-22T10:27:05.909Z,3.90
2018-08-22T10:29:34.007Z,3.70
2018-08-22T10:32:02.118Z,3.97
2018-08-22T10:34:30.267Z,4.40
2018-08-22T10:36:58.303Z,4.60
2018-08-22T10:39:26.451Z,5.27
2018-08-22T10:41:54.610Z,4.17
2018-08-22T10:44:22.752Z,4.40
2018-08-22T10:46:50.805Z,3.90
2018-08-22T10:49:18.905Z,4.33
2018-08-22T10:51:46.984Z,4.27
2018-08-22T10:54:15.064Z,4.40
2018-08-22T10:56:43.167Z,3.67
2018-08-22T10:59:11.342Z,4.00
2018-08-22T11:01:39.447Z,4.10
2018-08-22T11:04:07.532Z,3.43
2018-08-22T11:06:35.624Z,4.40
2018-08-22T11:09:05.028Z,3.87
2018-08-22T11:11:33.197Z,4.23
2018-08-22T11:14:01.308Z,3.77
2018-08-22T11:16:29.403Z,3.90
2018-08-22T11:18:57.537Z,4.50
2018-08-22T11:21:36.935Z,4.13
2018-08-22T11:24:16.288Z,3.73
2018-08-22T11:26:55.676Z,4.50
2018-08-22T11:29:35.043Z,3.50
2018-08-22T11:32:14.494Z,3.40
2018-08-22T11:34:43.844Z,3.70
2018-08-22T11:37:13.203Z,3.70
2018-08-22T11:39:42.615Z,3.40
2018-08-22T11:42:10.745Z,3.90
2018-08-22T11:44:38.851Z,3.67
2018-08-22T11:47:06.949Z,3.40
2018-08-22T11:49:35.061Z,3.80
2018-08-22T11:52:03.168Z,4.20
2018-08-22T11:54:31.786Z,3.70
2018-08-22T11:57:00.335Z,3.80
2018-08-22T11:59:28.437Z,3.97
2018-08-22T12:01:56.554Z,3.60
2018-08-22T12:04:24.612Z,3.67
2018-08-22T12:06:52.920Z,4.20
2018-08-22T12:09:21.035Z,4.20
2018-08-22T12:11:49.121Z,3.07
2018-08-22T12:14:17.239Z,3.07
2018-08-22T12:16:45.331Z,3.00
2018-08-22T12:19:13.451Z,2.90
2018-08-22T12:21:41.983Z,3.13
2018-08-22T12:24:10.074Z,2.63
2018-08-22T12:26:38.152Z,3.03
2018-08-22T12:29:06.251Z,3.40
2018-08-22T12:31:34.780Z,3.03
2018-08-22T12:34:02.863Z,2.83
2018-08-22T12:36:30.972Z,3.00
2018-08-22T12:38:59.060Z,3.33
2018-08-22T12:41:27.350Z,3.40
2018-08-22T12:43:55.832Z,3.27
2018-08-22T12:46:24.049Z,3.00
2018-08-22T12:48:52.208Z,3.37
2018-08-22T12:51:20.570Z,3.33
2018-08-22T12:53:49.492Z,3.30
2018-08-22T12:56:17.573Z,3.63
2018-08-22T12:58:45.679Z,3.33
2018-08-22T13:01:13.756Z,3.50
2018-08-22T13:03:41.903Z,3.53
2018-08-22T13:06:09.980Z,3.40
2018-08-22T13:08:38.100Z,3.30
2018-08-22T13:11:06.206Z,2.80
2018-08-22T13:13:34.358Z,3.10
2018-08-22T13:16:02.522Z,3.17
2018-08-22T13:18:30.636Z,2.47
2018-08-22T13:20:58.742Z,2.30
2018-08-22T13:23:26.856Z,2.70
2018-08-22T13:25:54.954Z,2.17
2018-08-22T13:28:23.100Z,2.63
2018-08-22T13:30:51.209Z,2.27
2018-08-22T13:33:19.287Z,2.83
2018-08-22T13:35:47.373Z,2.60
2018-08-22T13:38:15.466Z,3.00
2018-08-22T13:40:43.568Z,3.37
2018-08-22T13:43:11.772Z,3.13
2018-08-22T13:45:39.928Z,3.10
2018-08-22T13:48:08.320Z,3.07
2018-08-22T13:50:36.415Z,2.27
2018-08-22T13:53:04.535Z,2.97
2018-08-22T13:55:32.693Z,2.40
2018-08-22T13:58:00.805Z,2.23
2018-08-22T14:00:28.909Z,2.07
2018-08-22T14:02:57.023Z,2.30
2018-08-22T14:05:25.127Z,2.50
2018-08-22T14:07:53.297Z,2.47
2018-08-22T14:10:21.375Z,2.57
2018-08-22T14:12:49.512Z,2.00
2018-08-22T14:15:17.628Z,2.40
2018-08-22T14:17:45.752Z,2.40
2018-08-22T14:20:13.900Z,2.80
2018-08-22T14:22:42.027Z,2.40
2018-08-22T14:25:10.136Z,2.97
2018-08-22T14:27:38.241Z,2.60
2018-08-22T14:30:06.744Z,3.43
2018-08-22T14:32:34.866Z,2.40
2018-08-22T14:35:03.035Z,2.20
2018-08-22T14:37:31.151Z,2.50
2018-08-22T14:39:59.244Z,2.70
2018-08-22T14:42:27.359Z,2.83
2018-08-22T14:44:55.505Z,2.90
2018-08-22T14:47:23.597Z,2.73
2018-08-22T14:49:51.726Z,2.70
2018-08-22T14:52:19.826Z,3.30
2018-08-22T14:54:47.977Z,2.60
2018-08-22T14:57:16.067Z,2.37
2018-08-22T14:59:44.181Z,3.10
2018-08-22T15:02:12.283Z,3.10
2018-08-22T15:04:40.358Z,2.80
2018-08-22T15:07:08.487Z,2.37
2018-08-22T15:09:36.621Z,3.27
2018-08-22T15:12:04.711Z,2.87
2018-08-22T15:14:32.892Z,2.93
2018-08-22T15:17:00.959Z,3.10
2018-08-22T15:19:29.060Z,2.83
2018-08-22T15:21:57.144Z,2.90
2018-08-22T15:24:25.279Z,3.30
2018-08-22T15:26:53.376Z,2.70
2018-08-22T15:29:21.483Z,2.80
2018-08-22T15:31:49.554Z,3.17
2018-08-22T15:34:17.673Z,3.20
2018-08-22T15:36:45.775Z,2.70
2018-08-22T15:39:14.175Z,2.70
2018-08-22T15:41:42.256Z,2.50
2018-08-22T15:44:10.395Z,3.33
2018-08-22T15:46:38.493Z,2.83
2018-08-22T15:49:06.599Z,3.40
2018-08-22T15:51:34.731Z,2.50
2018-08-22T15:54:09.369Z,2.60
2018-08-22T15:56:38.919Z,2.50
2018-08-22T15:59:07.407Z,2.80
2018-08-22T16:01:35.513Z,2.53
2018-08-22T16:04:03.679Z,2.77
2018-08-22T16:06:31.868Z,3.03
2018-08-22T16:09:00.066Z,3.17
2018-08-22T16:11:28.167Z,3.37
2018-08-22T16:13:56.263Z,3.17
2018-08-22T16:16:24.352Z,3.77
2018-08-22T16:18:54.788Z,2.77
2018-08-22T16:21:22.871Z,2.40
2018-08-22T16:23:50.953Z,3.50
2018-08-22T16:26:19.031Z,3.47
2018-08-22T16:28:54.855Z,3.40
2018-08-22T16:31:24.872Z,3.60
2018-08-22T16:33:52.955Z,3.10
2018-08-22T16:36:26.383Z,2.93
2018-08-22T16:38:54.505Z,3.10
2018-08-22T16:41:22.619Z,3.23
2018-08-22T16:43:50.694Z,3.23
2018-08-22T16:46:18.779Z,3.43
2018-08-22T16:48:49.428Z,3.03
2018-08-22T16:51:17.584Z,3.20
2018-08-22T16:53:59.047Z,3.00
2018-08-22T16:56:27.661Z,2.73
2018-08-22T16:59:01.101Z,3.10
2018-08-22T17:01:35.763Z,3.17
2018-08-22T17:04:03.830Z,2.47
2018-08-22T17:06:31.944Z,3.40
2018-08-22T17:09:00.051Z,3.27
2018-08-22T17:11:28.184Z,2.70
2018-08-22T17:13:56.270Z,2.90
2018-08-22T17:16:25.065Z,3.20
2018-08-22T17:18:53.324Z,3.07
2018-08-22T17:21:21.413Z,2.93
2018-08-22T17:23:49.841Z,3.60
2018-08-22T17:26:19.281Z,2.90
2018-08-22T17:28:49.248Z,3.23
2018-08-22T17:31:17.969Z,3.50
2018-08-22T17:33:51.495Z,3.37
2018-08-22T17:36:19.609Z,3.57
2018-08-22T17:38:49.033Z,3.50
2018-08-22T17:41:17.776Z,3.30
2018-08-22T17:44:00.468Z,4.07
2018-08-22T17:46:30.093Z,3.10
2018-08-22T17:48:58.436Z,3.10
2018-08-22T17:51:26.609Z,3.47
2018-08-22T17:53:54.676Z,3.17
2018-08-22T17:56:24.183Z,3.23
2018-08-22T17:58:53.348Z,3.37
2018-08-22T18:01:21.826Z,3.60
2018-08-22T18:03:49.984Z,3.37
2018-08-22T18:06:18.076Z,4.03
2018-08-22T18:08:46.124Z,4.27
2018-08-22T18:11:14.249Z,5.00
2018-08-22T18:13:42.391Z,4.97
2018-08-22T18:16:10.412Z,5.23
2018-08-22T18:18:38.497Z,5.30
2018-08-22T18:21:06.600Z,6.20
2018-08-22T18:23:37.392Z,5.30
2018-08-22T18:26:05.796Z,6.77
2018-08-22T18:28:33.893Z,7.20
2018-08-22T18:31:01.964Z,7.60
2018-08-22T18:33:30.090Z,6.70
2018-08-22T18:35:58.156Z,5.50
2018-08-22T18:38:26.245Z,4.00
2018-08-22T18:41:06.005Z,4.77
2018-08-22T18:43:34.089Z,4.20
2018-08-22T18:46:08.411Z,4.90
2018-08-22T18:48:36.644Z,5.37
2018-08-22T18:51:05.108Z,4.97
2018-08-22T18:53:33.264Z,4.10
2018-08-22T18:56:11.782Z,3.37
2018-08-22T18:58:40.701Z,3.70
2018-08-22T19:01:08.810Z,3.30
2018-08-22T19:03:37.066Z,3.20
2018-08-22T19:06:05.315Z,4.07
2018-08-22T19:08:35.739Z,3.13
2018-08-22T19:11:03.835Z,3.67
2018-08-22T19:13:31.922Z,3.20
2018-08-22T19:16:06.334Z,3.83
2018-08-22T19:18:34.459Z,2.90
2018-08-22T19:21:06.816Z,3.10
2018-08-22T19:23:34.942Z,3.20
2018-08-22T19:26:04.116Z,2.80
2018-08-22T19:28:34.422Z,3.47
2018-08-22T19:31:02.495Z,3.80
2018-08-22T19:33:30.566Z,4.03
2018-08-22T19:35:58.695Z,4.43
2018-08-22T19:38:27.906Z,3.60
2018-08-22T19:40:56.399Z,4.67
2018-08-22T19:43:24.515Z,4.07
2018-08-22T19:45:52.566Z,3.47
2018-08-22T19:48:20.639Z,3.03
2018-08-22T19:50:48.716Z,3.80
2018-08-22T19:53:16.798Z,3.30
2018-08-22T19:55:44.876Z,4.10
2018-08-22T19:58:22.250Z,3.97
2018-08-22T20:00:52.405Z,4.13
2018-08-22T20:03:29.551Z,3.73
2018-08-22T20:05:58.061Z,3.77
2018-08-22T20:08:31.614Z,3.70
2018-08-22T20:10:59.679Z,3.70
2018-08-22T20:13:38.196Z,3.87
2018-08-22T20:16:06.328Z,4.50
2018-08-22T20:18:34.435Z,4.30
2018-08-22T20:21:02.527Z,4.47
2018-08-22T20:23:30.845Z,4.10
2018-08-22T20:26:00.800Z,4.37
2018-08-22T20:28:29.314Z,4.40
2018-08-22T20:31:02.662Z,3.67
2018-08-22T20:33:34.602Z,3.10
2018-08-22T20:36:03.572Z,3.50
2018-08-22T20:38:38.703Z,4.00
2018-08-22T20:41:13.370Z,4.00
2018-08-22T20:43:42.383Z,3.90
2018-08-22T20:46:14.745Z,4.10
2018-08-22T20:48:43.244Z,3.90
2018-08-22T20:51:13.631Z,3.90
2018-08-22T20:53:49.995Z,4.20
2018-08-22T20:56:25.532Z,4.70
2018-08-22T20:58:58.666Z,3.57
2018-08-22T21:01:28.972Z,3.90
2018-08-22T21:04:00.836Z,4.43
2018-08-22T21:06:29.833Z,3.50
2018-08-22T21:09:03.820Z,4.30
2018-08-22T21:11:37.569Z,3.73
2018-08-22T21:14:12.687Z,4.30
2018-08-22T21:16:41.993Z,4.20
2018-08-22T21:19:18.781Z,4.07
2018-08-22T21:21:54.255Z,4.07
2018-08-22T21:24:24.839Z,4.17
2018-08-22T21:27:00.621Z,3.60
2018-08-22T21:29:31.512Z,3.80
2018-08-22T21:32:00.472Z,4.80
2018-08-22T21:34:33.041Z,4.07
2018-08-22T21:37:01.889Z,4.30
2018-08-22T21:39:30.226Z,4.13
2018-08-22T21:41:58.528Z,4.50
2018-08-22T21:44:26.614Z,5.13
2018-08-22T21:47:00.313Z,4.10
2018-08-22T21:49:28.732Z,4.30
2018-08-22T21:51:58.407Z,4.30
2018-08-22T21:54:26.660Z,3.97
2018-08-22T21:56:54.812Z,4.10
2018-08-22T21:59:22.978Z,3.80
2018-08-22T22:01:56.171Z,4.20
2018-08-22T22:04:55.627Z,3.90
2018-08-22T22:07:23.726Z,4.87
2018-08-22T22:10:03.936Z,5.33
2018-08-22T22:12:36.547Z,4.77
2018-08-22T22:15:05.264Z,4.63
2018-08-22T22:17:33.423Z,4.57
2018-08-22T22:20:01.835Z,5.00
2018-08-22T22:22:29.928Z,4.67
2018-08-22T22:25:03.044Z,4.60
2018-08-22T22:27:31.647Z,4.40
2018-08-22T22:30:02.692Z,3.80
2018-08-22T22:32:31.280Z,4.47
2018-08-22T22:34:59.388Z,4.30
2018-08-22T22:37:27.579Z,4.57
2018-08-22T22:39:55.695Z,5.00
2018-08-22T22:42:26.740Z,4.33
2018-08-22T22:44:55.727Z,4.67
2018-08-22T22:47:26.648Z,4.43
2018-08-22T22:49:54.937Z,5.00
2018-08-22T22:52:28.167Z,4.90
2018-08-22T22:54:58.246Z,4.60
2018-08-22T22:57:26.472Z,4.13
2018-08-22T22:59:54.883Z,4.80
2018-08-22T23:02:25.507Z,4.60
2018-08-22T23:04:54.421Z,5.27
2018-08-22T23:07:24.008Z,5.47
2018-08-22T23:09:53.100Z,5.37
2018-08-22T23:12:26.489Z,5.00
2018-08-22T23:14:55.492Z,5.03
2018-08-22T23:17:23.635Z,4.77
2018-08-22T23:20:04.042Z,5.30
2018-08-22T23:22:32.200Z,5.00
2018-08-22T23:25:00.295Z,4.60
2018-08-22T23:27:28.381Z,4.37
2018-08-22T23:29:56.479Z,5.17
2018-08-22T23:32:24.555Z,5.53
2018-08-22T23:34:52.682Z,5.17
2018-08-22T23:37:20.787Z,4.90
2018-08-22T23:39:48.855Z,5.33
2018-08-22T23:42:17.027Z,4.90
2018-08-22T23:44:45.988Z,5.00
2018-08-22T23:47:14.076Z,5.67
2018-08-22T23:49:45.795Z,6.17
2018-08-22T23:52:14.179Z,5.20
2018-08-22T23:54:45.453Z,5.10
2018-08-22T23:57:19.352Z,5.60
2018-08-22T23:59:47.585Z,5.80
